sensor_id;sensor_type;location;lat;lon;timestamp;P1;durP1;ratioP1;P2;durP2;ratioP2
11935;SDS011;6027;48.576;9.180;2022-09-12T00:00:47;6.93;;;5.97;;
11935;SDS011;6027;48.576;9.180;2022-09-12T00:03:13;6.28;;;5.78;;
11935;SDS011;6027;48.576;9.180;2022-09-12T00:05:45;6.32;;;5.75;;
11935;SDS011;6027;48.576;9.180;2022-09-12T00:08:12;6.93;;;6.32;;
11935;SDS011;6027;48.576;9.180;2022-09-12T00:10:39;7.85;;;6.35;;
11935;SDS011;6027;48.576;9.180;2022-09-12T00:13:06;6.22;;;5.72;;
11935;SDS011;6027;48.576;9.180;2022-09-12T00:15:36;7.10;;;6.40;;
11935;SDS011;6027;48.576;9.180;2022-09-12T00:18:09;6.30;;;5.80;;
11935;SDS011;6027;48.576;9.180;2022-09-12T00:20:45;5.85;;;5.32;;
11935;SDS011;6027;48.576;9.180;2022-09-12T00:23:11;8.45;;;5.43;;
11935;SDS011;6027;48.576;9.180;2022-09-12T00:25:45;6.22;;;5.63;;
11935;SDS011;6027;48.576;9.180;2022-09-12T00:28:12;6.28;;;5.78;;
11935;SDS011;6027;48.576;9.180;2022-09-12T00:33:06;6.18;;;5.57;;
11935;SDS011;6027;48.576;9.180;2022-09-12T00:35:32;6.93;;;5.85;;
11935;SDS011;6027;48.576;9.180;2022-09-12T00:37:57;5.82;;;5.20;;
11935;SDS011;6027;48.576;9.180;2022-09-12T00:40:23;6.30;;;5.80;;
11935;SDS011;6027;48.576;9.180;2022-09-12T00:42:48;6.70;;;6.10;;
11935;SDS011;6027;48.576;9.180;2022-09-12T00:45:18;6.32;;;5.72;;
11935;SDS011;6027;48.576;9.180;2022-09-12T00:47:50;6.32;;;5.32;;
11935;SDS011;6027;48.576;9.180;2022-09-12T00:50:16;5.82;;;5.38;;
11935;SDS011;6027;48.576;9.180;2022-09-12T00:52:49;6.07;;;5.47;;
11935;SDS011;6027;48.576;9.180;2022-09-12T00:55:20;5.15;;;4.70;;
11935;SDS011;6027;48.576;9.180;2022-09-12T00:57:50;6.40;;;5.90;;
11935;SDS011;6027;48.576;9.180;2022-09-12T01:00:20;5.95;;;5.32;;
11935;SDS011;6027;48.576;9.180;2022-09-12T01:02:49;6.18;;;5.68;;
11935;SDS011;6027;48.576;9.180;2022-09-12T01:05:19;6.18;;;5.68;;
11935;SDS011;6027;48.576;9.180;2022-09-12T01:07:46;7.05;;;5.72;;
11935;SDS011;6027;48.576;9.180;2022-09-12T01:10:14;6.22;;;5.68;;
11935;SDS011;6027;48.576;9.180;2022-09-12T01:12:40;6.55;;;6.05;;
11935;SDS011;6027;48.576;9.180;2022-09-12T01:15:07;6.70;;;6.10;;
11935;SDS011;6027;48.576;9.180;2022-09-12T01:18:00;6.65;;;5.85;;
11935;SDS011;6027;48.576;9.180;2022-09-12T01:31:39;5.97;;;5.35;;
11935;SDS011;6027;48.576;9.180;2022-09-12T01:36:55;6.18;;;5.63;;
11935;SDS011;6027;48.576;9.180;2022-09-12T01:42:22;6.10;;;5.55;;
11935;SDS011;6027;48.576;9.180;2022-09-12T01:44:57;6.20;;;5.60;;
11935;SDS011;6027;48.576;9.180;2022-09-12T01:47:33;6.25;;;5.75;;
11935;SDS011;6027;48.576;9.180;2022-09-12T01:50:16;6.25;;;5.40;;
11935;SDS011;6027;48.576;9.180;2022-09-12T01:55:23;6.03;;;5.53;;
11935;SDS011;6027;48.576;9.180;2022-09-12T02:00:36;6.10;;;5.63;;
11935;SDS011;6027;48.576;9.180;2022-09-12T02:03:10;6.30;;;5.80;;
11935;SDS011;6027;48.576;9.180;2022-09-12T02:08:26;5.97;;;5.38;;
11935;SDS011;6027;48.576;9.180;2022-09-12T02:10:56;5.10;;;4.60;;
11935;SDS011;6027;48.576;9.180;2022-09-12T02:16:15;6.57;;;5.28;;
11935;SDS011;6027;48.576;9.180;2022-09-12T02:19:02;6.22;;;5.63;;
11935;SDS011;6027;48.576;9.180;2022-09-12T02:21:34;7.22;;;5.78;;
11935;SDS011;6027;48.576;9.180;2022-09-12T02:24:03;8.90;;;7.30;;
11935;SDS011;6027;48.576;9.180;2022-09-12T02:26:33;8.13;;;6.97;;
11935;SDS011;6027;48.576;9.180;2022-09-12T02:29:08;8.32;;;6.78;;
11935;SDS011;6027;48.576;9.180;2022-09-12T02:31:47;6.97;;;6.38;;
11935;SDS011;6027;48.576;9.180;2022-09-12T02:37:14;6.35;;;5.85;;
11935;SDS011;6027;48.576;9.180;2022-09-12T02:39:50;6.35;;;5.78;;
11935;SDS011;6027;48.576;9.180;2022-09-12T02:42:19;6.65;;;5.97;;
11935;SDS011;6027;48.576;9.180;2022-09-12T02:44:45;6.40;;;5.75;;
11935;SDS011;6027;48.576;9.180;2022-09-12T02:47:17;5.72;;;5.30;;
11935;SDS011;6027;48.576;9.180;2022-09-12T02:49:47;6.78;;;6.00;;
11935;SDS011;6027;48.576;9.180;2022-09-12T02:52:13;6.15;;;5.65;;
11935;SDS011;6027;48.576;9.180;2022-09-12T02:54:39;7.78;;;6.40;;
11935;SDS011;6027;48.576;9.180;2022-09-12T02:57:16;6.13;;;5.63;;
11935;SDS011;6027;48.576;9.180;2022-09-12T02:59:42;7.95;;;4.82;;
11935;SDS011;6027;48.576;9.180;2022-09-12T03:05:15;8.20;;;5.10;;
11935;SDS011;6027;48.576;9.180;2022-09-12T03:18:15;6.32;;;5.30;;
11935;SDS011;6027;48.576;9.180;2022-09-12T03:23:50;5.60;;;5.10;;
11935;SDS011;6027;48.576;9.180;2022-09-12T03:26:26;5.80;;;5.30;;
11935;SDS011;6027;48.576;9.180;2022-09-12T03:28:57;6.55;;;5.20;;
11935;SDS011;6027;48.576;9.180;2022-09-12T03:31:25;5.30;;;4.90;;
11935;SDS011;6027;48.576;9.180;2022-09-12T03:33:50;5.70;;;4.88;;
11935;SDS011;6027;48.576;9.180;2022-09-12T03:36:18;6.53;;;4.45;;
11935;SDS011;6027;48.576;9.180;2022-09-12T03:38:48;7.00;;;4.60;;
11935;SDS011;6027;48.576;9.180;2022-09-12T03:41:14;5.78;;;5.18;;
11935;SDS011;6027;48.576;9.180;2022-09-12T03:43:39;7.07;;;5.30;;
11935;SDS011;6027;48.576;9.180;2022-09-12T03:46:05;5.05;;;4.57;;
11935;SDS011;6027;48.576;9.180;2022-09-12T03:48:31;6.30;;;4.50;;
11935;SDS011;6027;48.576;9.180;2022-09-12T03:51:03;5.68;;;5.03;;
11935;SDS011;6027;48.576;9.180;2022-09-12T03:53:31;6.88;;;4.75;;
11935;SDS011;6027;48.576;9.180;2022-09-12T03:55:56;10.88;;;5.20;;
11935;SDS011;6027;48.576;9.180;2022-09-12T03:58:23;10.02;;;5.35;;
11935;SDS011;6027;48.576;9.180;2022-09-12T04:00:49;8.88;;;5.78;;
11935;SDS011;6027;48.576;9.180;2022-09-12T04:03:14;26.67;;;5.68;;
11935;SDS011;6027;48.576;9.180;2022-09-12T04:05:40;7.57;;;5.38;;
11935;SDS011;6027;48.576;9.180;2022-09-12T04:08:05;6.80;;;6.22;;
11935;SDS011;6027;48.576;9.180;2022-09-12T04:10:31;6.53;;;5.93;;
11935;SDS011;6027;48.576;9.180;2022-09-12T04:12:56;5.90;;;5.30;;
11935;SDS011;6027;48.576;9.180;2022-09-12T04:15:22;5.93;;;5.43;;
11935;SDS011;6027;48.576;9.180;2022-09-12T04:17:47;11.27;;;6.18;;
11935;SDS011;6027;48.576;9.180;2022-09-12T04:20:13;7.18;;;5.78;;
11935;SDS011;6027;48.576;9.180;2022-09-12T04:22:38;6.70;;;6.10;;
11935;SDS011;6027;48.576;9.180;2022-09-12T04:25:04;7.22;;;6.53;;
11935;SDS011;6027;48.576;9.180;2022-09-12T04:27:30;8.48;;;6.65;;
11935;SDS011;6027;48.576;9.180;2022-09-12T04:29:56;8.95;;;7.03;;
11935;SDS011;6027;48.576;9.180;2022-09-12T04:32:22;6.57;;;5.97;;
11935;SDS011;6027;48.576;9.180;2022-09-12T04:34:48;25.40;;;7.28;;
11935;SDS011;6027;48.576;9.180;2022-09-12T04:37:13;47.03;;;6.93;;
11935;SDS011;6027;48.576;9.180;2022-09-12T04:39:39;26.23;;;7.22;;
11935;SDS011;6027;48.576;9.180;2022-09-12T04:42:05;21.75;;;6.95;;
11935;SDS011;6027;48.576;9.180;2022-09-12T04:44:30;22.70;;;6.35;;
11935;SDS011;6027;48.576;9.180;2022-09-12T04:46:56;7.82;;;6.03;;
11935;SDS011;6027;48.576;9.180;2022-09-12T04:49:21;9.48;;;6.28;;
11935;SDS011;6027;48.576;9.180;2022-09-12T04:51:47;25.83;;;6.35;;
11935;SDS011;6027;48.576;9.180;2022-09-12T04:54:14;98.63;;;7.28;;
11935;SDS011;6027;48.576;9.180;2022-09-12T04:56:43;69.07;;;7.15;;
11935;SDS011;6027;48.576;9.180;2022-09-12T04:59:11;93.18;;;7.22;;
11935;SDS011;6027;48.576;9.180;2022-09-12T05:01:39;28.88;;;5.90;;
11935;SDS011;6027;48.576;9.180;2022-09-12T05:04:04;21.92;;;5.72;;
11935;SDS011;6027;48.576;9.180;2022-09-12T05:06:31;20.15;;;6.07;;
11935;SDS011;6027;48.576;9.180;2022-09-12T05:09:02;24.65;;;5.53;;
11935;SDS011;6027;48.576;9.180;2022-09-12T05:13:57;105.10;;;6.95;;
11935;SDS011;6027;48.576;9.180;2022-09-12T05:16:24;159.65;;;7.93;;
11935;SDS011;6027;48.576;9.180;2022-09-12T05:18:50;77.55;;;7.10;;
11935;SDS011;6027;48.576;9.180;2022-09-12T05:21:17;107.72;;;7.13;;
11935;SDS011;6027;48.576;9.180;2022-09-12T05:23:44;146.80;;;7.60;;
11935;SDS011;6027;48.576;9.180;2022-09-12T05:26:15;181.25;;;8.48;;
11935;SDS011;6027;48.576;9.180;2022-09-12T05:28:43;137.48;;;7.70;;
11935;SDS011;6027;48.576;9.180;2022-09-12T05:33:42;152.15;;;8.32;;
11935;SDS011;6027;48.576;9.180;2022-09-12T05:36:10;292.38;;;10.65;;
11935;SDS011;6027;48.576;9.180;2022-09-12T05:38:37;285.52;;;10.50;;
11935;SDS011;6027;48.576;9.180;2022-09-12T05:43:34;403.52;;;12.55;;
11935;SDS011;6027;48.576;9.180;2022-09-12T05:46:05;400.40;;;13.02;;
11935;SDS011;6027;48.576;9.180;2022-09-12T05:48:44;517.25;;;13.48;;
11935;SDS011;6027;48.576;9.180;2022-09-12T05:51:16;622.17;;;16.88;;
11935;SDS011;6027;48.576;9.180;2022-09-12T05:53:48;661.28;;;17.73;;
11935;SDS011;6027;48.576;9.180;2022-09-12T05:56:18;700.55;;;16.58;;
11935;SDS011;6027;48.576;9.180;2022-09-12T05:58:47;494.13;;;12.90;;
11935;SDS011;6027;48.576;9.180;2022-09-12T06:01:17;274.42;;;10.05;;
11935;SDS011;6027;48.576;9.180;2022-09-12T06:03:44;222.85;;;8.18;;
11935;SDS011;6027;48.576;9.180;2022-09-12T06:06:12;114.90;;;6.47;;
11935;SDS011;6027;48.576;9.180;2022-09-12T06:08:40;62.47;;;6.18;;
11935;SDS011;6027;48.576;9.180;2022-09-12T06:11:08;61.55;;;5.82;;
11935;SDS011;6027;48.576;9.180;2022-09-12T06:13:36;23.33;;;5.15;;
11935;SDS011;6027;48.576;9.180;2022-09-12T06:16:07;91.25;;;6.03;;
11935;SDS011;6027;48.576;9.180;2022-09-12T06:18:37;267.67;;;8.48;;
11935;SDS011;6027;48.576;9.180;2022-09-12T06:23:32;214.43;;;8.77;;
11935;SDS011;6027;48.576;9.180;2022-09-12T06:25:57;93.80;;;6.75;;
11935;SDS011;6027;48.576;9.180;2022-09-12T06:28:24;388.10;;;11.63;;
11935;SDS011;6027;48.576;9.180;2022-09-12T06:30:50;310.75;;;11.27;;
11935;SDS011;6027;48.576;9.180;2022-09-12T06:33:16;394.60;;;12.98;;
11935;SDS011;6027;48.576;9.180;2022-09-12T06:35:42;223.63;;;10.63;;
11935;SDS011;6027;48.576;9.180;2022-09-12T06:38:08;165.98;;;8.52;;
11935;SDS011;6027;48.576;9.180;2022-09-12T06:40:39;178.25;;;9.23;;
11935;SDS011;6027;48.576;9.180;2022-09-12T06:43:08;168.57;;;9.95;;
11935;SDS011;6027;48.576;9.180;2022-09-12T06:45:34;241.00;;;10.07;;
11935;SDS011;6027;48.576;9.180;2022-09-12T06:47:59;289.02;;;10.43;;
11935;SDS011;6027;48.576;9.180;2022-09-12T06:50:25;241.20;;;10.82;;
11935;SDS011;6027;48.576;9.180;2022-09-12T06:52:50;201.20;;;9.82;;
11935;SDS011;6027;48.576;9.180;2022-09-12T06:55:16;179.95;;;9.70;;
11935;SDS011;6027;48.576;9.180;2022-09-12T06:57:42;254.07;;;10.63;;
11935;SDS011;6027;48.576;9.180;2022-09-12T07:00:08;63.72;;;7.82;;
11935;SDS011;6027;48.576;9.180;2022-09-12T07:02:34;136.18;;;10.15;;
11935;SDS011;6027;48.576;9.180;2022-09-12T07:04:59;83.50;;;9.93;;
11935;SDS011;6027;48.576;9.180;2022-09-12T07:07:25;37.72;;;8.65;;
11935;SDS011;6027;48.576;9.180;2022-09-12T07:09:50;22.42;;;8.20;;
11935;SDS011;6027;48.576;9.180;2022-09-12T07:12:16;26.52;;;8.40;;
11935;SDS011;6027;48.576;9.180;2022-09-12T07:14:41;19.20;;;7.82;;
11935;SDS011;6027;48.576;9.180;2022-09-12T07:17:06;9.05;;;7.88;;
11935;SDS011;6027;48.576;9.180;2022-09-12T07:19:32;34.15;;;8.25;;
11935;SDS011;6027;48.576;9.180;2022-09-12T07:21:59;17.38;;;8.13;;
11935;SDS011;6027;48.576;9.180;2022-09-12T07:24:25;11.93;;;7.63;;
11935;SDS011;6027;48.576;9.180;2022-09-12T07:26:50;24.52;;;7.97;;
11935;SDS011;6027;48.576;9.180;2022-09-12T07:29:16;18.30;;;8.57;;
11935;SDS011;6027;48.576;9.180;2022-09-12T07:31:41;11.30;;;8.27;;
11935;SDS011;6027;48.576;9.180;2022-09-12T07:34:07;13.10;;;9.23;;
11935;SDS011;6027;48.576;9.180;2022-09-12T07:36:33;10.75;;;8.57;;
11935;SDS011;6027;48.576;9.180;2022-09-12T07:41:27;11.10;;;9.95;;
11935;SDS011;6027;48.576;9.180;2022-09-12T07:43:56;10.32;;;9.35;;
11935;SDS011;6027;48.576;9.180;2022-09-12T07:46:23;10.23;;;9.23;;
11935;SDS011;6027;48.576;9.180;2022-09-12T07:48:57;10.60;;;9.65;;
11935;SDS011;6027;48.576;9.180;2022-09-12T07:51:24;10.05;;;9.15;;
11935;SDS011;6027;48.576;9.180;2022-09-12T07:53:51;10.02;;;9.13;;
11935;SDS011;6027;48.576;9.180;2022-09-12T07:56:17;11.45;;;10.32;;
11935;SDS011;6027;48.576;9.180;2022-09-12T07:58:44;10.50;;;9.40;;
11935;SDS011;6027;48.576;9.180;2022-09-12T08:01:10;12.10;;;10.18;;
11935;SDS011;6027;48.576;9.180;2022-09-12T08:03:41;11.40;;;10.00;;
11935;SDS011;6027;48.576;9.180;2022-09-12T08:06:14;11.57;;;10.38;;
11935;SDS011;6027;48.576;9.180;2022-09-12T08:08:44;11.68;;;10.57;;
11935;SDS011;6027;48.576;9.180;2022-09-12T08:11:10;13.27;;;11.98;;
11935;SDS011;6027;48.576;9.180;2022-09-12T08:13:39;10.95;;;9.95;;
11935;SDS011;6027;48.576;9.180;2022-09-12T08:16:07;11.52;;;10.32;;
11935;SDS011;6027;48.576;9.180;2022-09-12T08:18:36;11.73;;;9.63;;
11935;SDS011;6027;48.576;9.180;2022-09-12T08:21:03;11.48;;;10.38;;
11935;SDS011;6027;48.576;9.180;2022-09-12T08:23:33;10.32;;;9.32;;
11935;SDS011;6027;48.576;9.180;2022-09-12T08:26:00;10.98;;;9.93;;
11935;SDS011;6027;48.576;9.180;2022-09-12T08:28:27;9.57;;;8.68;;
11935;SDS011;6027;48.576;9.180;2022-09-12T08:30:59;11.52;;;10.30;;
11935;SDS011;6027;48.576;9.180;2022-09-12T08:33:29;10.50;;;9.60;;
11935;SDS011;6027;48.576;9.180;2022-09-12T08:38:37;9.70;;;8.77;;
11935;SDS011;6027;48.576;9.180;2022-09-12T08:41:10;10.10;;;9.10;;
11935;SDS011;6027;48.576;9.180;2022-09-12T08:49:38;8.25;;;7.57;;
11935;SDS011;6027;48.576;9.180;2022-09-12T08:52:10;8.50;;;7.72;;
11935;SDS011;6027;48.576;9.180;2022-09-12T08:54:39;7.78;;;7.18;;
11935;SDS011;6027;48.576;9.180;2022-09-12T08:57:08;6.40;;;5.88;;
11935;SDS011;6027;48.576;9.180;2022-09-12T08:59:40;5.40;;;5.00;;
11935;SDS011;6027;48.576;9.180;2022-09-12T09:02:23;5.82;;;4.78;;
11935;SDS011;6027;48.576;9.180;2022-09-12T09:10:49;3.72;;;3.28;;
11935;SDS011;6027;48.576;9.180;2022-09-12T09:16:31;3.47;;;3.17;;
11935;SDS011;6027;48.576;9.180;2022-09-12T09:19:00;3.58;;;3.30;;
11935;SDS011;6027;48.576;9.180;2022-09-12T09:21:34;3.30;;;3.10;;
11935;SDS011;6027;48.576;9.180;2022-09-12T09:24:07;3.15;;;2.85;;
11935;SDS011;6027;48.576;9.180;2022-09-12T09:26:47;3.13;;;2.90;;
11935;SDS011;6027;48.576;9.180;2022-09-12T09:29:21;3.38;;;3.08;;
11935;SDS011;6027;48.576;9.180;2022-09-12T09:31:52;3.47;;;3.17;;
11935;SDS011;6027;48.576;9.180;2022-09-12T09:34:21;3.17;;;2.97;;
11935;SDS011;6027;48.576;9.180;2022-09-12T09:42:29;3.22;;;2.90;;
11935;SDS011;6027;48.576;9.180;2022-09-12T09:44:58;3.08;;;2.80;;
11935;SDS011;6027;48.576;9.180;2022-09-12T09:47:26;2.63;;;2.42;;
11935;SDS011;6027;48.576;9.180;2022-09-12T09:49:52;2.83;;;2.63;;
11935;SDS011;6027;48.576;9.180;2022-09-12T09:52:24;3.03;;;2.70;;
11935;SDS011;6027;48.576;9.180;2022-09-12T09:54:54;3.00;;;2.70;;
11935;SDS011;6027;48.576;9.180;2022-09-12T10:05:46;3.00;;;2.80;;
11935;SDS011;6027;48.576;9.180;2022-09-12T10:08:23;2.80;;;2.60;;
11935;SDS011;6027;48.576;9.180;2022-09-12T10:10:58;2.85;;;2.65;;
11935;SDS011;6027;48.576;9.180;2022-09-12T10:13:38;4.15;;;2.92;;
11935;SDS011;6027;48.576;9.180;2022-09-12T10:18:57;2.42;;;2.22;;
11935;SDS011;6027;48.576;9.180;2022-09-12T10:21:28;2.38;;;2.17;;
11935;SDS011;6027;48.576;9.180;2022-09-12T10:26:46;2.50;;;2.30;;
11935;SDS011;6027;48.576;9.180;2022-09-12T10:29:17;2.30;;;2.20;;
11935;SDS011;6027;48.576;9.180;2022-09-12T10:31:50;2.17;;;1.92;;
11935;SDS011;6027;48.576;9.180;2022-09-12T10:34:22;2.88;;;2.67;;
11935;SDS011;6027;48.576;9.180;2022-09-12T10:36:53;3.20;;;2.90;;
11935;SDS011;6027;48.576;9.180;2022-09-12T10:39:24;2.30;;;2.10;;
11935;SDS011;6027;48.576;9.180;2022-09-12T10:41:50;2.03;;;1.52;;
11935;SDS011;6027;48.576;9.180;2022-09-12T10:44:17;2.03;;;1.90;;
11935;SDS011;6027;48.576;9.180;2022-09-12T10:46:52;2.05;;;1.95;;
11935;SDS011;6027;48.576;9.180;2022-09-12T10:51:45;1.80;;;1.70;;
11935;SDS011;6027;48.576;9.180;2022-09-12T10:54:11;1.88;;;1.77;;
11935;SDS011;6027;48.576;9.180;2022-09-12T11:05:02;1.80;;;1.70;;
11935;SDS011;6027;48.576;9.180;2022-09-12T11:07:46;2.03;;;1.92;;
11935;SDS011;6027;48.576;9.180;2022-09-12T11:31:49;2.90;;;2.70;;
11935;SDS011;6027;48.576;9.180;2022-09-12T11:35:15;2.22;;;2.03;;
11935;SDS011;6027;48.576;9.180;2022-09-12T11:40:19;1.95;;;1.73;;
11935;SDS011;6027;48.576;9.180;2022-09-12T11:42:53;1.95;;;1.75;;
11935;SDS011;6027;48.576;9.180;2022-09-12T11:45:56;2.53;;;1.98;;
11935;SDS011;6027;48.576;9.180;2022-09-12T11:51:24;2.17;;;1.38;;
11935;SDS011;6027;48.576;9.180;2022-09-12T11:54:04;3.08;;;1.30;;
11935;SDS011;6027;48.576;9.180;2022-09-12T11:56:36;1.40;;;1.30;;
11935;SDS011;6027;48.576;9.180;2022-09-12T11:59:23;1.23;;;1.23;;
11935;SDS011;6027;48.576;9.180;2022-09-12T12:01:57;1.50;;;1.40;;
11935;SDS011;6027;48.576;9.180;2022-09-12T12:04:29;1.40;;;1.30;;
11935;SDS011;6027;48.576;9.180;2022-09-12T12:07:03;1.50;;;1.40;;
11935;SDS011;6027;48.576;9.180;2022-09-12T12:09:35;1.67;;;1.30;;
11935;SDS011;6027;48.576;9.180;2022-09-12T12:12:10;1.50;;;1.40;;
11935;SDS011;6027;48.576;9.180;2022-09-12T12:14:43;1.50;;;1.40;;
11935;SDS011;6027;48.576;9.180;2022-09-12T12:17:15;1.45;;;1.35;;
11935;SDS011;6027;48.576;9.180;2022-09-12T12:19:43;1.10;;;1.00;;
11935;SDS011;6027;48.576;9.180;2022-09-12T12:22:14;1.27;;;1.02;;
11935;SDS011;6027;48.576;9.180;2022-09-12T12:25:49;1.83;;;1.20;;
11935;SDS011;6027;48.576;9.180;2022-09-12T12:27:45;1.30;;;1.20;;
11935;SDS011;6027;48.576;9.180;2022-09-12T12:43:46;1.20;;;0.93;;
11935;SDS011;6027;48.576;9.180;2022-09-12T12:46:13;1.33;;;1.23;;
11935;SDS011;6027;48.576;9.180;2022-09-12T12:53:58;1.30;;;1.20;;
11935;SDS011;6027;48.576;9.180;2022-09-12T12:59:01;1.83;;;1.42;;
11935;SDS011;6027;48.576;9.180;2022-09-12T13:01:35;1.00;;;1.00;;
11935;SDS011;6027;48.576;9.180;2022-09-12T13:04:11;1.20;;;1.10;;
11935;SDS011;6027;48.576;9.180;2022-09-12T13:06:44;1.40;;;1.30;;
11935;SDS011;6027;48.576;9.180;2022-09-12T13:09:30;1.27;;;1.17;;
11935;SDS011;6027;48.576;9.180;2022-09-12T13:12:21;1.25;;;1.17;;
11935;SDS011;6027;48.576;9.180;2022-09-12T13:17:28;1.40;;;1.30;;
11935;SDS011;6027;48.576;9.180;2022-09-12T13:20:01;1.33;;;1.23;;
11935;SDS011;6027;48.576;9.180;2022-09-12T13:22:39;1.60;;;1.50;;
11935;SDS011;6027;48.576;9.180;2022-09-12T13:30:38;1.35;;;1.25;;
11935;SDS011;6027;48.576;9.180;2022-09-12T13:33:13;1.77;;;1.35;;
11935;SDS011;6027;48.576;9.180;2022-09-12T13:43:38;1.00;;;1.00;;
11935;SDS011;6027;48.576;9.180;2022-09-12T13:46:06;1.40;;;1.30;;
11935;SDS011;6027;48.576;9.180;2022-09-12T13:48:34;1.23;;;1.20;;
11935;SDS011;6027;48.576;9.180;2022-09-12T13:51:00;1.90;;;1.27;;
11935;SDS011;6027;48.576;9.180;2022-09-12T13:53:49;2.70;;;1.25;;
11935;SDS011;6027;48.576;9.180;2022-09-12T13:56:16;1.85;;;1.40;;
11935;SDS011;6027;48.576;9.180;2022-09-12T14:01:22;1.30;;;1.20;;
11935;SDS011;6027;48.576;9.180;2022-09-12T14:03:59;1.63;;;1.02;;
11935;SDS011;6027;48.576;9.180;2022-09-12T14:06:52;1.10;;;1.10;;
11935;SDS011;6027;48.576;9.180;2022-09-12T14:09:23;1.10;;;1.00;;
11935;SDS011;6027;48.576;9.180;2022-09-12T14:11:51;1.13;;;1.08;;
11935;SDS011;6027;48.576;9.180;2022-09-12T14:20:06;1.60;;;1.02;;
11935;SDS011;6027;48.576;9.180;2022-09-12T14:22:36;1.00;;;0.90;;
11935;SDS011;6027;48.576;9.180;2022-09-12T14:25:03;0.98;;;0.93;;
11935;SDS011;6027;48.576;9.180;2022-09-12T14:27:34;1.23;;;1.10;;
11935;SDS011;6027;48.576;9.180;2022-09-12T14:32:43;0.90;;;0.90;;
11935;SDS011;6027;48.576;9.180;2022-09-12T14:35:49;0.90;;;0.90;;
11935;SDS011;6027;48.576;9.180;2022-09-12T14:38:18;0.90;;;0.90;;
11935;SDS011;6027;48.576;9.180;2022-09-12T14:40:58;1.58;;;0.68;;
11935;SDS011;6027;48.576;9.180;2022-09-12T14:43:27;0.70;;;0.70;;
11935;SDS011;6027;48.576;9.180;2022-09-12T14:45:54;0.80;;;0.80;;
11935;SDS011;6027;48.576;9.180;2022-09-12T14:53:23;0.93;;;0.80;;
11935;SDS011;6027;48.576;9.180;2022-09-12T14:58:34;1.45;;;0.90;;
11935;SDS011;6027;48.576;9.180;2022-09-12T15:03:32;0.85;;;0.73;;
11935;SDS011;6027;48.576;9.180;2022-09-12T15:08:48;0.82;;;0.73;;
11935;SDS011;6027;48.576;9.180;2022-09-12T15:11:14;1.05;;;0.88;;
11935;SDS011;6027;48.576;9.180;2022-09-12T15:13:40;1.40;;;0.90;;
11935;SDS011;6027;48.576;9.180;2022-09-12T15:16:06;0.75;;;0.73;;
11935;SDS011;6027;48.576;9.180;2022-09-12T15:18:35;1.38;;;0.70;;
11935;SDS011;6027;48.576;9.180;2022-09-12T15:21:01;0.90;;;0.90;;
11935;SDS011;6027;48.576;9.180;2022-09-12T15:25:57;0.80;;;0.80;;
11935;SDS011;6027;48.576;9.180;2022-09-12T15:28:23;0.75;;;0.75;;
11935;SDS011;6027;48.576;9.180;2022-09-12T15:30:49;1.40;;;0.80;;
11935;SDS011;6027;48.576;9.180;2022-09-12T15:33:17;0.50;;;0.50;;
11935;SDS011;6027;48.576;9.180;2022-09-12T15:35:45;0.73;;;0.73;;
11935;SDS011;6027;48.576;9.180;2022-09-12T15:38:10;0.77;;;0.60;;
11935;SDS011;6027;48.576;9.180;2022-09-12T15:40:36;2.58;;;0.90;;
11935;SDS011;6027;48.576;9.180;2022-09-12T15:43:02;0.75;;;0.75;;
11935;SDS011;6027;48.576;9.180;2022-09-12T15:45:29;0.70;;;0.70;;
11935;SDS011;6027;48.576;9.180;2022-09-12T15:47:59;0.70;;;0.68;;
11935;SDS011;6027;48.576;9.180;2022-09-12T15:50:26;2.13;;;0.70;;
11935;SDS011;6027;48.576;9.180;2022-09-12T15:52:52;0.60;;;0.60;;
11935;SDS011;6027;48.576;9.180;2022-09-12T15:55:22;1.00;;;0.90;;
11935;SDS011;6027;48.576;9.180;2022-09-12T15:57:50;0.90;;;0.90;;
11935;SDS011;6027;48.576;9.180;2022-09-12T16:00:16;1.23;;;0.80;;
11935;SDS011;6027;48.576;9.180;2022-09-12T16:02:42;0.80;;;0.80;;
11935;SDS011;6027;48.576;9.180;2022-09-12T16:05:12;0.80;;;0.80;;
11935;SDS011;6027;48.576;9.180;2022-09-12T16:07:40;2.20;;;0.95;;
11935;SDS011;6027;48.576;9.180;2022-09-12T16:10:06;1.13;;;1.02;;
11935;SDS011;6027;48.576;9.180;2022-09-12T16:12:32;0.93;;;0.80;;
11935;SDS011;6027;48.576;9.180;2022-09-12T16:14:58;1.33;;;0.80;;
11935;SDS011;6027;48.576;9.180;2022-09-12T16:17:23;0.75;;;0.70;;
11935;SDS011;6027;48.576;9.180;2022-09-12T16:19:48;0.70;;;0.70;;
11935;SDS011;6027;48.576;9.180;2022-09-12T16:22:14;1.08;;;1.00;;
11935;SDS011;6027;48.576;9.180;2022-09-12T16:24:39;0.98;;;0.88;;
11935;SDS011;6027;48.576;9.180;2022-09-12T16:27:05;0.93;;;0.93;;
11935;SDS011;6027;48.576;9.180;2022-09-12T16:29:30;1.33;;;0.80;;
11935;SDS011;6027;48.576;9.180;2022-09-12T16:31:56;0.80;;;0.80;;
11935;SDS011;6027;48.576;9.180;2022-09-12T16:34:21;0.80;;;0.80;;
11935;SDS011;6027;48.576;9.180;2022-09-12T16:36:47;0.80;;;0.80;;
11935;SDS011;6027;48.576;9.180;2022-09-12T16:39:12;1.95;;;0.63;;
11935;SDS011;6027;48.576;9.180;2022-09-12T16:41:38;0.82;;;0.80;;
11935;SDS011;6027;48.576;9.180;2022-09-12T16:44:06;0.80;;;0.80;;
11935;SDS011;6027;48.576;9.180;2022-09-12T16:46:32;1.23;;;0.80;;
11935;SDS011;6027;48.576;9.180;2022-09-12T16:48:58;0.85;;;0.80;;
11935;SDS011;6027;48.576;9.180;2022-09-12T16:51:25;1.42;;;0.82;;
11935;SDS011;6027;48.576;9.180;2022-09-12T16:53:53;1.15;;;0.88;;
11935;SDS011;6027;48.576;9.180;2022-09-12T16:56:18;0.98;;;0.77;;
11935;SDS011;6027;48.576;9.180;2022-09-12T16:58:45;0.60;;;0.60;;
11935;SDS011;6027;48.576;9.180;2022-09-12T17:01:12;2.95;;;1.00;;
11935;SDS011;6027;48.576;9.180;2022-09-12T17:03:40;1.13;;;0.90;;
11935;SDS011;6027;48.576;9.180;2022-09-12T17:06:12;1.10;;;1.00;;
11935;SDS011;6027;48.576;9.180;2022-09-12T17:08:40;1.00;;;0.90;;
11935;SDS011;6027;48.576;9.180;2022-09-12T17:11:08;0.98;;;0.90;;
11935;SDS011;6027;48.576;9.180;2022-09-12T17:13:39;1.42;;;1.08;;
11935;SDS011;6027;48.576;9.180;2022-09-12T17:16:06;1.20;;;1.05;;
11935;SDS011;6027;48.576;9.180;2022-09-12T17:18:35;1.10;;;1.00;;
11935;SDS011;6027;48.576;9.180;2022-09-12T17:21:00;1.33;;;1.00;;
11935;SDS011;6027;48.576;9.180;2022-09-12T17:23:26;0.77;;;0.77;;
11935;SDS011;6027;48.576;9.180;2022-09-12T17:25:51;1.33;;;1.00;;
11935;SDS011;6027;48.576;9.180;2022-09-12T17:28:17;1.20;;;1.10;;
11935;SDS011;6027;48.576;9.180;2022-09-12T17:30:43;0.95;;;0.90;;
11935;SDS011;6027;48.576;9.180;2022-09-12T17:33:09;1.08;;;1.00;;
11935;SDS011;6027;48.576;9.180;2022-09-12T17:35:35;1.10;;;1.00;;
11935;SDS011;6027;48.576;9.180;2022-09-12T17:38:02;0.93;;;0.90;;
11935;SDS011;6027;48.576;9.180;2022-09-12T17:40:28;1.58;;;1.13;;
11935;SDS011;6027;48.576;9.180;2022-09-12T17:42:53;0.90;;;0.90;;
11935;SDS011;6027;48.576;9.180;2022-09-12T17:45:20;2.50;;;1.00;;
11935;SDS011;6027;48.576;9.180;2022-09-12T17:47:46;2.28;;;1.00;;
11935;SDS011;6027;48.576;9.180;2022-09-12T17:50:11;6.68;;;1.10;;
11935;SDS011;6027;48.576;9.180;2022-09-12T17:52:37;1.02;;;0.80;;
11935;SDS011;6027;48.576;9.180;2022-09-12T17:55:02;2.67;;;0.90;;
11935;SDS011;6027;48.576;9.180;2022-09-12T17:57:28;8.45;;;7.57;;
11935;SDS011;6027;48.576;9.180;2022-09-12T17:59:53;5.65;;;4.93;;
11935;SDS011;6027;48.576;9.180;2022-09-12T18:02:19;8.60;;;7.80;;
11935;SDS011;6027;48.576;9.180;2022-09-12T18:04:45;8.50;;;7.18;;
11935;SDS011;6027;48.576;9.180;2022-09-12T18:07:16;4.32;;;3.58;;
11935;SDS011;6027;48.576;9.180;2022-09-12T18:09:43;2.25;;;2.05;;
11935;SDS011;6027;48.576;9.180;2022-09-12T18:12:11;2.15;;;2.00;;
11935;SDS011;6027;48.576;9.180;2022-09-12T18:14:38;3.92;;;1.80;;
11935;SDS011;6027;48.576;9.180;2022-09-12T18:17:04;2.28;;;2.08;;
11935;SDS011;6027;48.576;9.180;2022-09-12T18:19:32;2.40;;;1.83;;
11935;SDS011;6027;48.576;9.180;2022-09-12T18:24:27;1.75;;;1.30;;
11935;SDS011;6027;48.576;9.180;2022-09-12T18:26:52;2.03;;;1.20;;
11935;SDS011;6027;48.576;9.180;2022-09-12T18:29:22;1.60;;;1.50;;
11935;SDS011;6027;48.576;9.180;2022-09-12T18:31:48;1.50;;;1.17;;